Aviation Digital Data Service (ADDS)

Output produced by METARs form (1656 UTC 23 January 2019)
found at http://www.aviationweather.gov/metar/data/
 
METAR text: ESMS 231650Z 11011KT CAVOK M02/M05 Q1008 R17/19//95
Conditions at: ESMS (MALMO/STURUP , SE) observed 1650 UTC 23 January 2019
Temperature: -2.0°C (28°F)
Dewpoint: -5.0°C (23°F) [RH = 80%]
Pressure (altimeter): 29.76 inches Hg (1008.0 mb)
Winds: from the ESE (110 degrees) at 13 MPH (11 knots; 5.7 m/s)
Visibility: 6 or more miles (10+ km)
Ceiling: ceiling and visibility are OK
Clouds: unknown
Weather: no significant weather observed at this time

METAR text: ESMS 231620Z 10010KT CAVOK M03/M06 Q1008 R17/19//95
Conditions at: ESMS (MALMO/STURUP , SE) observed 1620 UTC 23 January 2019
Temperature: -3.0°C (27°F)
Dewpoint: -6.0°C (21°F) [RH = 80%]
Pressure (altimeter): 29.76 inches Hg (1008.0 mb)
Winds: from the E (100 degrees) at 12 MPH (10 knots; 5.1 m/s)
Visibility: 6 or more miles (10+ km)
Ceiling: ceiling and visibility are OK
Clouds: unknown
Weather: no significant weather observed at this time

METAR text: ESMS 231550Z 11010KT CAVOK M02/M05 Q1007 R17/19//95
Conditions at: ESMS (MALMO/STURUP , SE) observed 1550 UTC 23 January 2019
Temperature: -2.0°C (28°F)
Dewpoint: -5.0°C (23°F) [RH = 80%]
Pressure (altimeter): 29.73 inches Hg (1007.0 mb)
Winds: from the ESE (110 degrees) at 12 MPH (10 knots; 5.1 m/s)
Visibility: 6 or more miles (10+ km)
Ceiling: ceiling and visibility are OK
Clouds: unknown
Weather: no significant weather observed at this time

METAR text: ESMS 231520Z 10009KT CAVOK M02/M06 Q1007 R17/19//95
Conditions at: ESMS (MALMO/STURUP , SE) observed 1520 UTC 23 January 2019
Temperature: -2.0°C (28°F)
Dewpoint: -6.0°C (21°F) [RH = 74%]
Pressure (altimeter): 29.73 inches Hg (1007.0 mb)
Winds: from the E (100 degrees) at 10 MPH (9 knots; 4.6 m/s)
Visibility: 6 or more miles (10+ km)
Ceiling: ceiling and visibility are OK
Clouds: unknown
Weather: no significant weather observed at this time

METAR text: ESMS 231450Z 10008KT CAVOK M02/M05 Q1007 R17/19//95
Conditions at: ESMS (MALMO/STURUP , SE) observed 1450 UTC 23 January 2019
Temperature: -2.0°C (28°F)
Dewpoint: -5.0°C (23°F) [RH = 80%]
Pressure (altimeter): 29.73 inches Hg (1007.0 mb)
Winds: from the E (100 degrees) at 9 MPH (8 knots; 4.1 m/s)
Visibility: 6 or more miles (10+ km)
Ceiling: ceiling and visibility are OK
Clouds: unknown
Weather: no significant weather observed at this time

METAR text: ESMS 231420Z 10009KT CAVOK M01/M05 Q1007 R17/19//95
Conditions at: ESMS (MALMO/STURUP , SE) observed 1420 UTC 23 January 2019
Temperature: -1.0°C (30°F)
Dewpoint: -5.0°C (23°F) [RH = 74%]
Pressure (altimeter): 29.73 inches Hg (1007.0 mb)
Winds: from the E (100 degrees) at 10 MPH (9 knots; 4.6 m/s)
Visibility: 6 or more miles (10+ km)
Ceiling: ceiling and visibility are OK
Clouds: unknown
Weather: no significant weather observed at this time

METAR text: ESMS 231350Z 11010KT CAVOK M01/M05 Q1007 R17/19//95
Conditions at: ESMS (MALMO/STURUP , SE) observed 1350 UTC 23 January 2019
Temperature: -1.0°C (30°F)
Dewpoint: -5.0°C (23°F) [RH = 74%]
Pressure (altimeter): 29.73 inches Hg (1007.0 mb)
Winds: from the ESE (110 degrees) at 12 MPH (10 knots; 5.1 m/s)
Visibility: 6 or more miles (10+ km)
Ceiling: ceiling and visibility are OK
Clouds: unknown
Weather: no significant weather observed at this time

METAR text: ESMS 231320Z 12010KT CAVOK M00/M05 Q1007 R17/19//95
Conditions at: ESMS (MALMO/STURUP , SE) observed 1320 UTC 23 January 2019
Temperature: 0.0°C (32°F)
Dewpoint: -5.0°C (23°F) [RH = 69%]
Pressure (altimeter): 29.73 inches Hg (1007.0 mb)
Winds: from the ESE (120 degrees) at 12 MPH (10 knots; 5.1 m/s)
Visibility: 6 or more miles (10+ km)
Ceiling: ceiling and visibility are OK
Clouds: unknown
Weather: no significant weather observed at this time

METAR text: ESMS 231250Z 13010KT CAVOK M00/M05 Q1007 R17/19//95
Conditions at: ESMS (MALMO/STURUP , SE) observed 1250 UTC 23 January 2019
Temperature: 0.0°C (32°F)
Dewpoint: -5.0°C (23°F) [RH = 69%]
Pressure (altimeter): 29.73 inches Hg (1007.0 mb)
Winds: from the SE (130 degrees) at 12 MPH (10 knots; 5.1 m/s)
Visibility: 6 or more miles (10+ km)
Ceiling: ceiling and visibility are OK
Clouds: unknown
Weather: no significant weather observed at this time

METAR text: ESMS 231220Z 13008KT 9999 FEW020 00/M05 Q1007 R17/19//95
Conditions at: ESMS (MALMO/STURUP , SE) observed 1220 UTC 23 January 2019
Temperature: 0.0°C (32°F)
Dewpoint: -5.0°C (23°F) [RH = 69%]
Pressure (altimeter): 29.73 inches Hg (1007.0 mb)
Winds: from the SE (130 degrees) at 9 MPH (8 knots; 4.1 m/s)
Visibility: 6 or more miles (10+ km)
Ceiling: at least 12,000 feet AGL
Clouds: few clouds at 2000 feet AGL
Weather: no significant weather observed at this time

METAR text: ESMS 231150Z 14008KT 9999 FEW021 M00/M05 Q1007 R17/19//95
Conditions at: ESMS (MALMO/STURUP , SE) observed 1150 UTC 23 January 2019
Temperature: 0.0°C (32°F)
Dewpoint: -5.0°C (23°F) [RH = 69%]
Pressure (altimeter): 29.73 inches Hg (1007.0 mb)
Winds: from the SE (140 degrees) at 9 MPH (8 knots; 4.1 m/s)
Visibility: 6 or more miles (10+ km)
Ceiling: at least 12,000 feet AGL
Clouds: few clouds at 2100 feet AGL
Weather: no significant weather observed at this time

METAR text: ESMS 231120Z 13008KT 9999 FEW020 M00/M05 Q1007 R17/19//95
Conditions at: ESMS (MALMO/STURUP , SE) observed 1120 UTC 23 January 2019
Temperature: 0.0°C (32°F)
Dewpoint: -5.0°C (23°F) [RH = 69%]
Pressure (altimeter): 29.73 inches Hg (1007.0 mb)
Winds: from the SE (130 degrees) at 9 MPH (8 knots; 4.1 m/s)
Visibility: 6 or more miles (10+ km)
Ceiling: at least 12,000 feet AGL
Clouds: few clouds at 2000 feet AGL
Weather: no significant weather observed at this time

METAR text: ESMS 231050Z 14007KT 9999 FEW020 M00/M04 Q1007 R17/19//95
Conditions at: ESMS (MALMO/STURUP , SE) observed 1050 UTC 23 January 2019
Temperature: 0.0°C (32°F)
Dewpoint: -4.0°C (25°F) [RH = 74%]
Pressure (altimeter): 29.73 inches Hg (1007.0 mb)
Winds: from the SE (140 degrees) at 8 MPH (7 knots; 3.6 m/s)
Visibility: 6 or more miles (10+ km)
Ceiling: at least 12,000 feet AGL
Clouds: few clouds at 2000 feet AGL
Weather: no significant weather observed at this time

METAR text: ESMS 231020Z 14007KT 8000 NSC M01/M05 Q1007 R17/19//95
Conditions at: ESMS (MALMO/STURUP , SE) observed 1020 UTC 23 January 2019
Temperature: -1.0°C (30°F)
Dewpoint: -5.0°C (23°F) [RH = 74%]
Pressure (altimeter): 29.73 inches Hg (1007.0 mb)
Winds: from the SE (140 degrees) at 8 MPH (7 knots; 3.6 m/s)
Visibility: 5 miles ( 8 km)
Ceiling: at least 12,000 feet AGL
Clouds: sky clear below 12,000 feet AGL
Weather: no significant weather observed at this time

METAR text: ESMS 230950Z 14006KT 100V160 6000 BR NSC M01/M05 Q1007 R17/19//95
Conditions at: ESMS (MALMO/STURUP , SE) observed 0950 UTC 23 January 2019
Temperature: -1.0°C (30°F)
Dewpoint: -5.0°C (23°F) [RH = 74%]
Pressure (altimeter): 29.73 inches Hg (1007.0 mb)
Winds: from the SE (140 degrees) at 7 MPH (6 knots; 3.1 m/s)
Visibility: 4 miles ( 6 km)
Ceiling: at least 12,000 feet AGL
Clouds: sky clear below 12,000 feet AGL
Weather: BR  (mist)

METAR text: ESMS 230920Z 14007KT 6000 BR NSC M02/M04 Q1007 R17/19//95
Conditions at: ESMS (MALMO/STURUP , SE) observed 0920 UTC 23 January 2019
Temperature: -2.0°C (28°F)
Dewpoint: -4.0°C (25°F) [RH = 86%]
Pressure (altimeter): 29.73 inches Hg (1007.0 mb)
Winds: from the SE (140 degrees) at 8 MPH (7 knots; 3.6 m/s)
Visibility: 4 miles ( 6 km)
Ceiling: at least 12,000 feet AGL
Clouds: sky clear below 12,000 feet AGL
Weather: BR  (mist)

METAR text: ESMS 230850Z 14007KT 7000 BR NSC M02/M05 Q1007 R17/19//95
Conditions at: ESMS (MALMO/STURUP , SE) observed 0850 UTC 23 January 2019
Temperature: -2.0°C (28°F)
Dewpoint: -5.0°C (23°F) [RH = 80%]
Pressure (altimeter): 29.73 inches Hg (1007.0 mb)
Winds: from the SE (140 degrees) at 8 MPH (7 knots; 3.6 m/s)
Visibility: 4 miles ( 7 km)
Ceiling: at least 12,000 feet AGL
Clouds: sky clear below 12,000 feet AGL
Weather: BR  (mist)

METAR text: ESMS 230820Z 13007KT 8000 NSC M02/M05 Q1007 R17/19//95
Conditions at: ESMS (MALMO/STURUP , SE) observed 0820 UTC 23 January 2019
Temperature: -2.0°C (28°F)
Dewpoint: -5.0°C (23°F) [RH = 80%]
Pressure (altimeter): 29.73 inches Hg (1007.0 mb)
Winds: from the SE (130 degrees) at 8 MPH (7 knots; 3.6 m/s)
Visibility: 5 miles ( 8 km)
Ceiling: at least 12,000 feet AGL
Clouds: sky clear below 12,000 feet AGL
Weather: no significant weather observed at this time

METAR text: ESMS 230750Z 13007KT 7000 NSC M03/M05 Q1007 R17/19//95
Conditions at: ESMS (MALMO/STURUP , SE) observed 0750 UTC 23 January 2019
Temperature: -3.0°C (27°F)
Dewpoint: -5.0°C (23°F) [RH = 86%]
Pressure (altimeter): 29.73 inches Hg (1007.0 mb)
Winds: from the SE (130 degrees) at 8 MPH (7 knots; 3.6 m/s)
Visibility: 4 miles ( 7 km)
Ceiling: at least 12,000 feet AGL
Clouds: sky clear below 12,000 feet AGL
Weather: no significant weather observed at this time

METAR text: ESMS 230720Z 14008KT 6000 FEW013 M02/M04 Q1006 R17/19//95
Conditions at: ESMS (MALMO/STURUP , SE) observed 0720 UTC 23 January 2019
Temperature: -2.0°C (28°F)
Dewpoint: -4.0°C (25°F) [RH = 86%]
Pressure (altimeter): 29.70 inches Hg (1006.0 mb)
Winds: from the SE (140 degrees) at 9 MPH (8 knots; 4.1 m/s)
Visibility: 4 miles ( 6 km)
Ceiling: at least 12,000 feet AGL
Clouds: few clouds at 1300 feet AGL
Weather: no significant weather observed at this time

METAR text: ESMS 230650Z 13009KT 6000 SCT013 M02/M04 Q1006 R17/19//95
Conditions at: ESMS (MALMO/STURUP , SE) observed 0650 UTC 23 January 2019
Temperature: -2.0°C (28°F)
Dewpoint: -4.0°C (25°F) [RH = 86%]
Pressure (altimeter): 29.70 inches Hg (1006.0 mb)
Winds: from the SE (130 degrees) at 10 MPH (9 knots; 4.6 m/s)
Visibility: 4 miles ( 6 km)
Ceiling: at least 12,000 feet AGL
Clouds: scattered clouds at 1300 feet AGL
Weather: no significant weather observed at this time

METAR text: ESMS 230620Z 14008KT 7000 BKN013 M02/M04 Q1006 R17/19//95
Conditions at: ESMS (MALMO/STURUP , SE) observed 0620 UTC 23 January 2019
Temperature: -2.0°C (28°F)
Dewpoint: -4.0°C (25°F) [RH = 86%]
Pressure (altimeter): 29.70 inches Hg (1006.0 mb)
Winds: from the SE (140 degrees) at 9 MPH (8 knots; 4.1 m/s)
Visibility: 4 miles ( 7 km)
Ceiling: 1300 feet AGL
Clouds: broken clouds at 1300 feet AGL
Weather: no significant weather observed at this time

METAR text: ESMS 230550Z 14009KT 7000 BR BKN013 BKN016 M02/M04 Q1006 R17/19//95
Conditions at: ESMS (MALMO/STURUP , SE) observed 0550 UTC 23 January 2019
Temperature: -2.0°C (28°F)
Dewpoint: -4.0°C (25°F) [RH = 86%]
Pressure (altimeter): 29.70 inches Hg (1006.0 mb)
Winds: from the SE (140 degrees) at 10 MPH (9 knots; 4.6 m/s)
Visibility: 4 miles ( 7 km)
Ceiling: 1300 feet AGL
Clouds: broken clouds at 1300 feet AGL
broken clouds at 1600 feet AGL
Weather: BR  (mist)

METAR text: ESMS 230520Z 13008KT 7000 BKN014 M02/M04 Q1006 R17/19//95
Conditions at: ESMS (MALMO/STURUP , SE) observed 0520 UTC 23 January 2019
Temperature: -2.0°C (28°F)
Dewpoint: -4.0°C (25°F) [RH = 86%]
Pressure (altimeter): 29.70 inches Hg (1006.0 mb)
Winds: from the SE (130 degrees) at 9 MPH (8 knots; 4.1 m/s)
Visibility: 4 miles ( 7 km)
Ceiling: 1400 feet AGL
Clouds: broken clouds at 1400 feet AGL
Weather: no significant weather observed at this time

METAR text: ESMS 230450Z 14009KT 8000 FEW015 M02/M04 Q1006 R17/19//95
Conditions at: ESMS (MALMO/STURUP , SE) observed 0450 UTC 23 January 2019
Temperature: -2.0°C (28°F)
Dewpoint: -4.0°C (25°F) [RH = 86%]
Pressure (altimeter): 29.70 inches Hg (1006.0 mb)
Winds: from the SE (140 degrees) at 10 MPH (9 knots; 4.6 m/s)
Visibility: 5 miles ( 8 km)
Ceiling: at least 12,000 feet AGL
Clouds: few clouds at 1500 feet AGL
Weather: no significant weather observed at this time

METAR text: ESMS 230420Z 13009KT 8000 BR FEW015 M02/M04 Q1006 R17/19//95
Conditions at: ESMS (MALMO/STURUP , SE) observed 0420 UTC 23 January 2019
Temperature: -2.0°C (28°F)
Dewpoint: -4.0°C (25°F) [RH = 86%]
Pressure (altimeter): 29.70 inches Hg (1006.0 mb)
Winds: from the SE (130 degrees) at 10 MPH (9 knots; 4.6 m/s)
Visibility: 5 miles ( 8 km)
Ceiling: at least 12,000 feet AGL
Clouds: few clouds at 1500 feet AGL
Weather: BR  (mist)

METAR text: ESMS 230350Z 13007KT 9000 FEW016 M02/M04 Q1006 R17/19//95
Conditions at: ESMS (MALMO/STURUP , SE) observed 0350 UTC 23 January 2019
Temperature: -2.0°C (28°F)
Dewpoint: -4.0°C (25°F) [RH = 86%]
Pressure (altimeter): 29.70 inches Hg (1006.0 mb)
Winds: from the SE (130 degrees) at 8 MPH (7 knots; 3.6 m/s)
Visibility: 6 miles ( 9 km)
Ceiling: at least 12,000 feet AGL
Clouds: few clouds at 1600 feet AGL
Weather: no significant weather observed at this time

METAR text: ESMS 230320Z 14007KT 7000 FEW018 M02/M04 Q1006 R17/19//95
Conditions at: ESMS (MALMO/STURUP , SE) observed 0320 UTC 23 January 2019
Temperature: -2.0°C (28°F)
Dewpoint: -4.0°C (25°F) [RH = 86%]
Pressure (altimeter): 29.70 inches Hg (1006.0 mb)
Winds: from the SE (140 degrees) at 8 MPH (7 knots; 3.6 m/s)
Visibility: 4 miles ( 7 km)
Ceiling: at least 12,000 feet AGL
Clouds: few clouds at 1800 feet AGL
Weather: no significant weather observed at this time

METAR text: ESMS 230250Z 14006KT 7000 BR FEW018 M02/M04 Q1006 R17/19//95
Conditions at: ESMS (MALMO/STURUP , SE) observed 0250 UTC 23 January 2019
Temperature: -2.0°C (28°F)
Dewpoint: -4.0°C (25°F) [RH = 86%]
Pressure (altimeter): 29.70 inches Hg (1006.0 mb)
Winds: from the SE (140 degrees) at 7 MPH (6 knots; 3.1 m/s)
Visibility: 4 miles ( 7 km)
Ceiling: at least 12,000 feet AGL
Clouds: few clouds at 1800 feet AGL
Weather: BR  (mist)

METAR text: ESMS 230220Z 13006KT 9999 FEW019 M02/M04 Q1006 R17/19//95
Conditions at: ESMS (MALMO/STURUP , SE) observed 0220 UTC 23 January 2019
Temperature: -2.0°C (28°F)
Dewpoint: -4.0°C (25°F) [RH = 86%]
Pressure (altimeter): 29.70 inches Hg (1006.0 mb)
Winds: from the SE (130 degrees) at 7 MPH (6 knots; 3.1 m/s)
Visibility: 6 or more miles (10+ km)
Ceiling: at least 12,000 feet AGL
Clouds: few clouds at 1900 feet AGL
Weather: no significant weather observed at this time

METAR text: ESMS 230150Z 14006KT 9999 FEW018 M02/M04 Q1006 R17/29//95
Conditions at: ESMS (MALMO/STURUP , SE) observed 0150 UTC 23 January 2019
Temperature: -2.0°C (28°F)
Dewpoint: -4.0°C (25°F) [RH = 86%]
Pressure (altimeter): 29.70 inches Hg (1006.0 mb)
Winds: from the SE (140 degrees) at 7 MPH (6 knots; 3.1 m/s)
Visibility: 6 or more miles (10+ km)
Ceiling: at least 12,000 feet AGL
Clouds: few clouds at 1800 feet AGL
Weather: no significant weather observed at this time

METAR text: ESMS 230120Z 14007KT 7000 FEW019 M02/M04 Q1006 R17/29//95
Conditions at: ESMS (MALMO/STURUP , SE) observed 0120 UTC 23 January 2019
Temperature: -2.0°C (28°F)
Dewpoint: -4.0°C (25°F) [RH = 86%]
Pressure (altimeter): 29.70 inches Hg (1006.0 mb)
Winds: from the SE (140 degrees) at 8 MPH (7 knots; 3.6 m/s)
Visibility: 4 miles ( 7 km)
Ceiling: at least 12,000 feet AGL
Clouds: few clouds at 1900 feet AGL
Weather: no significant weather observed at this time

METAR text: ESMS 230050Z 14005KT 8000 SCT018 M02/M04 Q1006 R17/29//95
Conditions at: ESMS (MALMO/STURUP , SE) observed 0050 UTC 23 January 2019
Temperature: -2.0°C (28°F)
Dewpoint: -4.0°C (25°F) [RH = 86%]
Pressure (altimeter): 29.70 inches Hg (1006.0 mb)
Winds: from the SE (140 degrees) at 6 MPH (5 knots; 2.6 m/s)
Visibility: 5 miles ( 8 km)
Ceiling: at least 12,000 feet AGL
Clouds: scattered clouds at 1800 feet AGL
Weather: no significant weather observed at this time

METAR text: ESMS 230020Z 15007KT 8000 NSC M03/M05 Q1006 R17/29//95
Conditions at: ESMS (MALMO/STURUP , SE) observed 0020 UTC 23 January 2019
Temperature: -3.0°C (27°F)
Dewpoint: -5.0°C (23°F) [RH = 86%]
Pressure (altimeter): 29.70 inches Hg (1006.0 mb)
Winds: from the SSE (150 degrees) at 8 MPH (7 knots; 3.6 m/s)
Visibility: 5 miles ( 8 km)
Ceiling: at least 12,000 feet AGL
Clouds: sky clear below 12,000 feet AGL
Weather: no significant weather observed at this time

METAR text: ESMS 222350Z 15008KT 7000 NSC M02/M04 Q1006 R17/29//95
Conditions at: ESMS (MALMO/STURUP , SE) observed 2350 UTC 22 January 2019
Temperature: -2.0°C (28°F)
Dewpoint: -4.0°C (25°F) [RH = 86%]
Pressure (altimeter): 29.70 inches Hg (1006.0 mb)
Winds: from the SSE (150 degrees) at 9 MPH (8 knots; 4.1 m/s)
Visibility: 4 miles ( 7 km)
Ceiling: at least 12,000 feet AGL
Clouds: sky clear below 12,000 feet AGL
Weather: no significant weather observed at this time

METAR text: ESMS 222320Z 15008KT 9000 NSC M01/M03 Q1007 R17/29//95
Conditions at: ESMS (MALMO/STURUP , SE) observed 2320 UTC 22 January 2019
Temperature: -1.0°C (30°F)
Dewpoint: -3.0°C (27°F) [RH = 86%]
Pressure (altimeter): 29.73 inches Hg (1007.0 mb)
Winds: from the SSE (150 degrees) at 9 MPH (8 knots; 4.1 m/s)
Visibility: 6 miles ( 9 km)
Ceiling: at least 12,000 feet AGL
Clouds: sky clear below 12,000 feet AGL
Weather: no significant weather observed at this time

METAR text: ESMS 222250Z 15009KT 9000 FEW016 M01/M03 Q1007 R17/29//95
Conditions at: ESMS (MALMO/STURUP , SE) observed 2250 UTC 22 January 2019
Temperature: -1.0°C (30°F)
Dewpoint: -3.0°C (27°F) [RH = 86%]
Pressure (altimeter): 29.73 inches Hg (1007.0 mb)
Winds: from the SSE (150 degrees) at 10 MPH (9 knots; 4.6 m/s)
Visibility: 6 miles ( 9 km)
Ceiling: at least 12,000 feet AGL
Clouds: few clouds at 1600 feet AGL
Weather: no significant weather observed at this time

METAR text: ESMS 222220Z 15010KT 9000 SCT016 M01/M03 Q1007 R17/29//95
Conditions at: ESMS (MALMO/STURUP , SE) observed 2220 UTC 22 January 2019
Temperature: -1.0°C (30°F)
Dewpoint: -3.0°C (27°F) [RH = 86%]
Pressure (altimeter): 29.73 inches Hg (1007.0 mb)
Winds: from the SSE (150 degrees) at 12 MPH (10 knots; 5.1 m/s)
Visibility: 6 miles ( 9 km)
Ceiling: at least 12,000 feet AGL
Clouds: scattered clouds at 1600 feet AGL
Weather: no significant weather observed at this time

METAR text: ESMS 222150Z 15008KT 9999 BKN015 M01/M03 Q1007 R17/29//95
Conditions at: ESMS (MALMO/STURUP , SE) observed 2150 UTC 22 January 2019
Temperature: -1.0°C (30°F)
Dewpoint: -3.0°C (27°F) [RH = 86%]
Pressure (altimeter): 29.73 inches Hg (1007.0 mb)
Winds: from the SSE (150 degrees) at 9 MPH (8 knots; 4.1 m/s)
Visibility: 6 or more miles (10+ km)
Ceiling: 1500 feet AGL
Clouds: broken clouds at 1500 feet AGL
Weather: no significant weather observed at this time

METAR text: ESMS 222120Z 15008KT 8000 BKN012 M01/M02 Q1007 R17/29//95
Conditions at: ESMS (MALMO/STURUP , SE) observed 2120 UTC 22 January 2019
Temperature: -1.0°C (30°F)
Dewpoint: -2.0°C (28°F) [RH = 93%]
Pressure (altimeter): 29.73 inches Hg (1007.0 mb)
Winds: from the SSE (150 degrees) at 9 MPH (8 knots; 4.1 m/s)
Visibility: 5 miles ( 8 km)
Ceiling: 1200 feet AGL
Clouds: broken clouds at 1200 feet AGL
Weather: no significant weather observed at this time

METAR text: ESMS 222050Z 15009KT 8000 OVC011 M00/M02 Q1007 R17/29//95
Conditions at: ESMS (MALMO/STURUP , SE) observed 2050 UTC 22 January 2019
Temperature: 0.0°C (32°F)
Dewpoint: -2.0°C (28°F) [RH = 86%]
Pressure (altimeter): 29.73 inches Hg (1007.0 mb)
Winds: from the SSE (150 degrees) at 10 MPH (9 knots; 4.6 m/s)
Visibility: 5 miles ( 8 km)
Ceiling: 1100 feet AGL
Clouds: overcast cloud deck at 1100 feet AGL
Weather: no significant weather observed at this time

METAR text: ESMS 222020Z 16009KT 9999 BR OVC009 M00/M01 Q1007 R17/29//95
Conditions at: ESMS (MALMO/STURUP , SE) observed 2020 UTC 22 January 2019
Temperature: 0.0°C (32°F)
Dewpoint: -1.0°C (30°F) [RH = 93%]
Pressure (altimeter): 29.73 inches Hg (1007.0 mb)
Winds: from the SSE (160 degrees) at 10 MPH (9 knots; 4.6 m/s)
Visibility: 6 or more miles (10+ km)
Ceiling: 900 feet AGL
Clouds: overcast cloud deck at 900 feet AGL
Weather: BR  (mist)

METAR text: ESMS 221950Z 16011KT 9999 OVC009 M00/M02 Q1007 R17/29//95
Conditions at: ESMS (MALMO/STURUP , SE) observed 1950 UTC 22 January 2019
Temperature: 0.0°C (32°F)
Dewpoint: -2.0°C (28°F) [RH = 86%]
Pressure (altimeter): 29.73 inches Hg (1007.0 mb)
Winds: from the SSE (160 degrees) at 13 MPH (11 knots; 5.7 m/s)
Visibility: 6 or more miles (10+ km)
Ceiling: 900 feet AGL
Clouds: overcast cloud deck at 900 feet AGL
Weather: no significant weather observed at this time

METAR text: ESMS 221920Z 16010KT 9999 OVC007 00/M01 Q1007 R17/29//95
Conditions at: ESMS (MALMO/STURUP , SE) observed 1920 UTC 22 January 2019
Temperature: 0.0°C (32°F)
Dewpoint: -1.0°C (30°F) [RH = 93%]
Pressure (altimeter): 29.73 inches Hg (1007.0 mb)
Winds: from the SSE (160 degrees) at 12 MPH (10 knots; 5.1 m/s)
Visibility: 6 or more miles (10+ km)
Ceiling: 700 feet AGL
Clouds: overcast cloud deck at 700 feet AGL
Weather: no significant weather observed at this time

METAR text: ESMS 221850Z 15009KT 7000 BKN007 OVC009 00/M01 Q1007 R17/29//95
Conditions at: ESMS (MALMO/STURUP , SE) observed 1850 UTC 22 January 2019
Temperature: 0.0°C (32°F)
Dewpoint: -1.0°C (30°F) [RH = 93%]
Pressure (altimeter): 29.73 inches Hg (1007.0 mb)
Winds: from the SSE (150 degrees) at 10 MPH (9 knots; 4.6 m/s)
Visibility: 4 miles ( 7 km)
Ceiling: 700 feet AGL
Clouds: broken clouds at 700 feet AGL
overcast cloud deck at 900 feet AGL
Weather: no significant weather observed at this time

METAR text: ESMS 221820Z 15007KT 7000 BKN008 OVC034 00/M01 Q1008 R17/29//95
Conditions at: ESMS (MALMO/STURUP , SE) observed 1820 UTC 22 January 2019
Temperature: 0.0°C (32°F)
Dewpoint: -1.0°C (30°F) [RH = 93%]
Pressure (altimeter): 29.76 inches Hg (1008.0 mb)
Winds: from the SSE (150 degrees) at 8 MPH (7 knots; 3.6 m/s)
Visibility: 4 miles ( 7 km)
Ceiling: 800 feet AGL
Clouds: broken clouds at 800 feet AGL
overcast cloud deck at 3400 feet AGL
Weather: no significant weather observed at this time

METAR text: ESMS 221750Z 15007KT 8000 BR SCT008 BKN010 OVC033 00/M01 Q1008 R17/29//95
Conditions at: ESMS (MALMO/STURUP , SE) observed 1750 UTC 22 January 2019
Temperature: 0.0°C (32°F)
Dewpoint: -1.0°C (30°F) [RH = 93%]
Pressure (altimeter): 29.76 inches Hg (1008.0 mb)
Winds: from the SSE (150 degrees) at 8 MPH (7 knots; 3.6 m/s)
Visibility: 5 miles ( 8 km)
Ceiling: 1000 feet AGL
Clouds: scattered clouds at 800 feet AGL
broken clouds at 1000 feet AGL
overcast cloud deck at 3300 feet AGL
Weather: BR  (mist)

METAR text: ESMS 221720Z 14005KT 9999 SCT008 OVC033 00/M01 Q1008 R17/29//95
Conditions at: ESMS (MALMO/STURUP , SE) observed 1720 UTC 22 January 2019
Temperature: 0.0°C (32°F)
Dewpoint: -1.0°C (30°F) [RH = 93%]
Pressure (altimeter): 29.76 inches Hg (1008.0 mb)
Winds: from the SE (140 degrees) at 6 MPH (5 knots; 2.6 m/s)
Visibility: 6 or more miles (10+ km)
Ceiling: 3300 feet AGL
Clouds: scattered clouds at 800 feet AGL
overcast cloud deck at 3300 feet AGL
Weather: no significant weather observed at this time

METAR text: ESMS 221650Z 15007KT 9999 OVC007 00/M01 Q1008 R17/29//95
Conditions at: ESMS (MALMO/STURUP , SE) observed 1650 UTC 22 January 2019
Temperature: 0.0°C (32°F)
Dewpoint: -1.0°C (30°F) [RH = 93%]
Pressure (altimeter): 29.76 inches Hg (1008.0 mb)
Winds: from the SSE (150 degrees) at 8 MPH (7 knots; 3.6 m/s)
Visibility: 6 or more miles (10+ km)
Ceiling: 700 feet AGL
Clouds: overcast cloud deck at 700 feet AGL
Weather: no significant weather observed at this time

METAR text: ESMS 221620Z 15008KT 7000 OVC007 00/M01 Q1008 R17/29//95
Conditions at: ESMS (MALMO/STURUP , SE) observed 1620 UTC 22 January 2019
Temperature: 0.0°C (32°F)
Dewpoint: -1.0°C (30°F) [RH = 93%]
Pressure (altimeter): 29.76 inches Hg (1008.0 mb)
Winds: from the SSE (150 degrees) at 9 MPH (8 knots; 4.1 m/s)
Visibility: 4 miles ( 7 km)
Ceiling: 700 feet AGL
Clouds: overcast cloud deck at 700 feet AGL
Weather: no significant weather observed at this time

METAR text: ESMS 221550Z 15006KT 6000 OVC009 00/M01 Q1008 R17/29//95
Conditions at: ESMS (MALMO/STURUP , SE) observed 1550 UTC 22 January 2019
Temperature: 0.0°C (32°F)
Dewpoint: -1.0°C (30°F) [RH = 93%]
Pressure (altimeter): 29.76 inches Hg (1008.0 mb)
Winds: from the SSE (150 degrees) at 7 MPH (6 knots; 3.1 m/s)
Visibility: 4 miles ( 6 km)
Ceiling: 900 feet AGL
Clouds: overcast cloud deck at 900 feet AGL
Weather: no significant weather observed at this time

METAR text: ESMS 221520Z 16006KT 7000 OVC010 00/M01 Q1009 R17/29//95
Conditions at: ESMS (MALMO/STURUP , SE) observed 1520 UTC 22 January 2019
Temperature: 0.0°C (32°F)
Dewpoint: -1.0°C (30°F) [RH = 93%]
Pressure (altimeter): 29.79 inches Hg (1009.0 mb)
Winds: from the SSE (160 degrees) at 7 MPH (6 knots; 3.1 m/s)
Visibility: 4 miles ( 7 km)
Ceiling: 1000 feet AGL
Clouds: overcast cloud deck at 1000 feet AGL
Weather: no significant weather observed at this time

METAR text: ESMS 221450Z 17006KT 7000 OVC009 00/M01 Q1009 R17/29//95
Conditions at: ESMS (MALMO/STURUP , SE) observed 1450 UTC 22 January 2019
Temperature: 0.0°C (32°F)
Dewpoint: -1.0°C (30°F) [RH = 93%]
Pressure (altimeter): 29.79 inches Hg (1009.0 mb)
Winds: from the S (170 degrees) at 7 MPH (6 knots; 3.1 m/s)
Visibility: 4 miles ( 7 km)
Ceiling: 900 feet AGL
Clouds: overcast cloud deck at 900 feet AGL
Weather: no significant weather observed at this time

METAR text: ESMS 221420Z 18007KT 9999 BKN012 00/M01 Q1009 R17/29//95
Conditions at: ESMS (MALMO/STURUP , SE) observed 1420 UTC 22 January 2019
Temperature: 0.0°C (32°F)
Dewpoint: -1.0°C (30°F) [RH = 93%]
Pressure (altimeter): 29.79 inches Hg (1009.0 mb)
Winds: from the S (180 degrees) at 8 MPH (7 knots; 3.6 m/s)
Visibility: 6 or more miles (10+ km)
Ceiling: 1200 feet AGL
Clouds: broken clouds at 1200 feet AGL
Weather: no significant weather observed at this time

METAR text: ESMS 221350Z 19008KT 9999 SCT009 BKN011 01/M01 Q1009 R17/29//95
Conditions at: ESMS (MALMO/STURUP , SE) observed 1350 UTC 22 January 2019
Temperature: 1.0°C (34°F)
Dewpoint: -1.0°C (30°F) [RH = 86%]
Pressure (altimeter): 29.79 inches Hg (1009.0 mb)
Winds: from the S (190 degrees) at 9 MPH (8 knots; 4.1 m/s)
Visibility: 6 or more miles (10+ km)
Ceiling: 1100 feet AGL
Clouds: scattered clouds at 900 feet AGL
broken clouds at 1100 feet AGL
Weather: no significant weather observed at this time

METAR text: ESMS 221320Z 21007KT 7000 BKN008 01/M00 Q1009 R17/29//95
Conditions at: ESMS (MALMO/STURUP , SE) observed 1320 UTC 22 January 2019
Temperature: 1.0°C (34°F)
Dewpoint: 0.0°C (32°F) [RH = 93%]
Pressure (altimeter): 29.79 inches Hg (1009.0 mb)
Winds: from the SSW (210 degrees) at 8 MPH (7 knots; 3.6 m/s)
Visibility: 4 miles ( 7 km)
Ceiling: 800 feet AGL
Clouds: broken clouds at 800 feet AGL
Weather: no significant weather observed at this time

METAR text: ESMS 221250Z 24006KT 6000 FEW007 01/M00 Q1009 R17/29//95
Conditions at: ESMS (MALMO/STURUP , SE) observed 1250 UTC 22 January 2019
Temperature: 1.0°C (34°F)
Dewpoint: 0.0°C (32°F) [RH = 93%]
Pressure (altimeter): 29.79 inches Hg (1009.0 mb)
Winds: from the WSW (240 degrees) at 7 MPH (6 knots; 3.1 m/s)
Visibility: 4 miles ( 6 km)
Ceiling: at least 12,000 feet AGL
Clouds: few clouds at 700 feet AGL
Weather: no significant weather observed at this time

METAR text: ESMS 221220Z 25004KT 230V300 8000 SCT008 BKN024 BKN032 01/00 Q1010 R17/29//95
Conditions at: ESMS (MALMO/STURUP , SE) observed 1220 UTC 22 January 2019
Temperature: 1.0°C (34°F)
Dewpoint: 0.0°C (32°F) [RH = 93%]
Pressure (altimeter): 29.82 inches Hg (1010.0 mb)
Winds: from the WSW (250 degrees) at 5 MPH (4 knots; 2.1 m/s)
Visibility: 5 miles ( 8 km)
Ceiling: 2400 feet AGL
Clouds: scattered clouds at 800 feet AGL
broken clouds at 2400 feet AGL
broken clouds at 3200 feet AGL
Weather: no significant weather observed at this time

METAR text: ESMS 221150Z 21004KT 7000 BKN009 01/M00 Q1010 R17/29//95
Conditions at: ESMS (MALMO/STURUP , SE) observed 1150 UTC 22 January 2019
Temperature: 1.0°C (34°F)
Dewpoint: 0.0°C (32°F) [RH = 93%]
Pressure (altimeter): 29.82 inches Hg (1010.0 mb)
Winds: from the SSW (210 degrees) at 5 MPH (4 knots; 2.1 m/s)
Visibility: 4 miles ( 7 km)
Ceiling: 900 feet AGL
Clouds: broken clouds at 900 feet AGL
Weather: no significant weather observed at this time

METAR text: ESMS 221120Z 18003KT 7000 SCT006 BKN009 BKN033 00/M01 Q1010 R17/29//95
Conditions at: ESMS (MALMO/STURUP , SE) observed 1120 UTC 22 January 2019
Temperature: 0.0°C (32°F)
Dewpoint: -1.0°C (30°F) [RH = 93%]
Pressure (altimeter): 29.82 inches Hg (1010.0 mb)
Winds: from the S (180 degrees) at 3 MPH (3 knots; 1.5 m/s)
Visibility: 4 miles ( 7 km)
Ceiling: 900 feet AGL
Clouds: scattered clouds at 600 feet AGL
broken clouds at 900 feet AGL
broken clouds at 3300 feet AGL
Weather: no significant weather observed at this time

METAR text: ESMS 221050Z 21003KT 9000 FEW006 SCT011 01/M01 Q1010 R17/29//95
Conditions at: ESMS (MALMO/STURUP , SE) observed 1050 UTC 22 January 2019
Temperature: 1.0°C (34°F)
Dewpoint: -1.0°C (30°F) [RH = 86%]
Pressure (altimeter): 29.82 inches Hg (1010.0 mb)
Winds: from the SSW (210 degrees) at 3 MPH (3 knots; 1.5 m/s)
Visibility: 6 miles ( 9 km)
Ceiling: at least 12,000 feet AGL
Clouds: few clouds at 600 feet AGL
scattered clouds at 1100 feet AGL
Weather: no significant weather observed at this time

METAR text: ESMS 221020Z 22007KT 8000 OVC005 01/M00 Q1011 R17/29//95
Conditions at: ESMS (MALMO/STURUP , SE) observed 1020 UTC 22 January 2019
Temperature: 1.0°C (34°F)
Dewpoint: 0.0°C (32°F) [RH = 93%]
Pressure (altimeter): 29.85 inches Hg (1011.0 mb)
Winds: from the SW (220 degrees) at 8 MPH (7 knots; 3.6 m/s)
Visibility: 5 miles ( 8 km)
Ceiling: 500 feet AGL
Clouds: overcast cloud deck at 500 feet AGL
Weather: no significant weather observed at this time

METAR text: ESMS 220950Z 19005KT 5000 BR SCT005 OVC007 00/M00 Q1011 R17/29//95
Conditions at: ESMS (MALMO/STURUP , SE) observed 0950 UTC 22 January 2019
Temperature: 0.0°C (32°F)
Dewpoint: 0.0°C (32°F) [RH = 100%]
Pressure (altimeter): 29.85 inches Hg (1011.0 mb)
Winds: from the S (190 degrees) at 6 MPH (5 knots; 2.6 m/s)
Visibility: 3 miles ( 5 km)
Ceiling: 700 feet AGL
Clouds: scattered clouds at 500 feet AGL
overcast cloud deck at 700 feet AGL
Weather: BR  (mist)

METAR text: ESMS 220920Z 17003KT 4000 BR BKN008 OVC026 M00/M01 Q1011 R17/29//95
Conditions at: ESMS (MALMO/STURUP , SE) observed 0920 UTC 22 January 2019
Temperature: 0.0°C (32°F)
Dewpoint: -1.0°C (30°F) [RH = 93%]
Pressure (altimeter): 29.85 inches Hg (1011.0 mb)
Winds: from the S (170 degrees) at 3 MPH (3 knots; 1.5 m/s)
Visibility: 2.49 miles (4.01 km)
Ceiling: 800 feet AGL
Clouds: broken clouds at 800 feet AGL
overcast cloud deck at 2600 feet AGL
Weather: BR  (mist)

METAR text: ESMS 220850Z 16004KT 5000 BR FEW010 SCT016 OVC024 M00/M01 Q1011 R17/29//95
Conditions at: ESMS (MALMO/STURUP , SE) observed 0850 UTC 22 January 2019
Temperature: 0.0°C (32°F)
Dewpoint: -1.0°C (30°F) [RH = 93%]
Pressure (altimeter): 29.85 inches Hg (1011.0 mb)
Winds: from the SSE (160 degrees) at 5 MPH (4 knots; 2.1 m/s)
Visibility: 3 miles ( 5 km)
Ceiling: 2400 feet AGL
Clouds: few clouds at 1000 feet AGL
scattered clouds at 1600 feet AGL
overcast cloud deck at 2400 feet AGL
Weather: BR  (mist)

METAR text: ESMS 220820Z 19004KT 140V220 6000 BR OVC023 M00/M01 Q1011 R17/29//95
Conditions at: ESMS (MALMO/STURUP , SE) observed 0820 UTC 22 January 2019
Temperature: 0.0°C (32°F)
Dewpoint: -1.0°C (30°F) [RH = 93%]
Pressure (altimeter): 29.85 inches Hg (1011.0 mb)
Winds: from the S (190 degrees) at 5 MPH (4 knots; 2.1 m/s)
Visibility: 4 miles ( 6 km)
Ceiling: 2300 feet AGL
Clouds: overcast cloud deck at 2300 feet AGL
Weather: BR  (mist)

METAR text: ESMS 220750Z 17003KT 4200 BR OVC022 M00/M01 Q1011 R17/29//95
Conditions at: ESMS (MALMO/STURUP , SE) observed 0750 UTC 22 January 2019
Temperature: 0.0°C (32°F)
Dewpoint: -1.0°C (30°F) [RH = 93%]
Pressure (altimeter): 29.85 inches Hg (1011.0 mb)
Winds: from the S (170 degrees) at 3 MPH (3 knots; 1.5 m/s)
Visibility: 2.61 miles (4.20 km)
Ceiling: 2200 feet AGL
Clouds: overcast cloud deck at 2200 feet AGL
Weather: BR  (mist)

METAR text: ESMS 220720Z 18003KT 3500 BR OVC023 M00/M01 Q1011 R17/29//95
Conditions at: ESMS (MALMO/STURUP , SE) observed 0720 UTC 22 January 2019
Temperature: 0.0°C (32°F)
Dewpoint: -1.0°C (30°F) [RH = 93%]
Pressure (altimeter): 29.85 inches Hg (1011.0 mb)
Winds: from the S (180 degrees) at 3 MPH (3 knots; 1.5 m/s)
Visibility: 2.17 miles (3.49 km)
Ceiling: 2300 feet AGL
Clouds: overcast cloud deck at 2300 feet AGL
Weather: BR  (mist)

METAR text: ESMS 220650Z 00000KT 4700 BR BKN021 M00/M01 Q1011 R17/29//95
Conditions at: ESMS (MALMO/STURUP , SE) observed 0650 UTC 22 January 2019
Temperature: 0.0°C (32°F)
Dewpoint: -1.0°C (30°F) [RH = 93%]
Pressure (altimeter): 29.85 inches Hg (1011.0 mb)
Winds: calm
Visibility: 2.92 miles (4.70 km)
Ceiling: 2100 feet AGL
Clouds: broken clouds at 2100 feet AGL
Weather: BR  (mist)

METAR text: ESMS 220620Z VRB03KT 6000 BR OVC020 M00/M01 Q1011 R17/29//95
Conditions at: ESMS (MALMO/STURUP , SE) observed 0620 UTC 22 January 2019
Temperature: 0.0°C (32°F)
Dewpoint: -1.0°C (30°F) [RH = 93%]
Pressure (altimeter): 29.85 inches Hg (1011.0 mb)
Winds: variable direction winds at 3 MPH (3 knots; 1.5 m/s)
Visibility: 4 miles ( 6 km)
Ceiling: 2000 feet AGL
Clouds: overcast cloud deck at 2000 feet AGL
Weather: BR  (mist)

METAR text: ESMS 220550Z 23003KT 220V290 9999 OVC019 M00/M01 Q1011 R17/29//95
Conditions at: ESMS (MALMO/STURUP , SE) observed 0550 UTC 22 January 2019
Temperature: 0.0°C (32°F)
Dewpoint: -1.0°C (30°F) [RH = 93%]
Pressure (altimeter): 29.85 inches Hg (1011.0 mb)
Winds: from the SW (230 degrees) at 3 MPH (3 knots; 1.5 m/s)
Visibility: 6 or more miles (10+ km)
Ceiling: 1900 feet AGL
Clouds: overcast cloud deck at 1900 feet AGL
Weather: no significant weather observed at this time

METAR text: ESMS 220520Z 26003KT 9999 FEW014 OVC018 M00/M01 Q1011 R17/29//95
Conditions at: ESMS (MALMO/STURUP , SE) observed 0520 UTC 22 January 2019
Temperature: 0.0°C (32°F)
Dewpoint: -1.0°C (30°F) [RH = 93%]
Pressure (altimeter): 29.85 inches Hg (1011.0 mb)
Winds: from the W (260 degrees) at 3 MPH (3 knots; 1.5 m/s)
Visibility: 6 or more miles (10+ km)
Ceiling: 1800 feet AGL
Clouds: few clouds at 1400 feet AGL
overcast cloud deck at 1800 feet AGL
Weather: no significant weather observed at this time

Forecast for: ESMS (MALMO/STURUP , SE)
Text: TAF ESMS 231111Z 2312/2412 13010KT 9999 FEW020
Forecast period: 1200 UTC 23 January 2019 to 1200 UTC 24 January 2019
Forecast type: FROM: standard forecast or significant change
Winds: from the SE (130 degrees) at 12 MPH (10 knots; 5.1 m/s)
Visibility: 6 or more miles 10+ km)
Ceiling: at least 12,000 feet AGL
Clouds: few clouds at 2000 feet AGL
Weather: no significant weather forecast for this period
Text: TEMPO 2316/2412 BKN010
Forecast period: 1600 UTC 23 January 2019 to 1200 UTC 24 January 2019
Forecast type: TEMPORARY: The following changes expected for less than half the time period
Visibility: missing
Ceiling: 1000 feet AGL
Clouds: broken clouds at 1000 feet AGL
Weather: no significant weather forecast for this period